Time;durP1;ratioP1;P1;durP2;ratioP2;P2;SDS_P1;SDS_P2;PMS_P1;PMS_P2;Temp;Humidity;BMP_temperature;BMP_pressure;BME280_temperature;BME280_humidity;BME280_pressure;Samples;Min_cycle;Max_cycle;Signal;HPM_P1;HPM_P2
2021/08/02 00:01:27;;;;;;;5.90;3.30;;;16.40;99.90;;;;;;5092050;28;20386;-54
2021/08/02 00:04:06;;;;;;;5.50;3.20;;;16.40;99.90;;;;;;5092929;28;20405;-54
2021/08/02 00:06:52;;;;;;;10.68;3.60;;;16.50;99.90;;;;;;5091977;28;20572;-53
2021/08/02 00:09:35;;;;;;;6.50;3.70;;;16.50;99.90;;;;;;5092057;28;20397;-54
2021/08/02 00:12:08;;;;;;;7.40;4.00;;;16.50;99.90;;;;;;5092876;28;20378;-54
2021/08/02 00:14:41;;;;;;;6.60;3.60;;;16.50;99.90;;;;;;5091607;28;20386;-53
2021/08/02 00:17:06;;;;;;;6.47;3.60;;;16.40;99.90;;;;;;5092664;28;20401;-54
2021/08/02 00:19:32;;;;;;;5.95;3.30;;;16.30;99.90;;;;;;5091767;28;20386;-54
2021/08/02 00:21:59;;;;;;;9.60;3.50;;;16.30;99.90;;;;;;5092827;28;20405;-54
2021/08/02 00:24:26;;;;;;;7.25;3.50;;;16.30;99.90;;;;;;5090566;28;20385;-53
2021/08/02 00:26:54;;;;;;;6.63;3.47;;;16.30;99.90;;;;;;5092431;28;20460;-54
2021/08/02 00:29:21;;;;;;;8.50;3.47;;;16.40;99.90;;;;;;5091451;28;20382;-54
2021/08/02 00:31:47;;;;;;;7.30;3.70;;;16.50;99.90;;;;;;5092321;28;20389;-54
2021/08/02 00:34:13;;;;;;;6.80;3.20;;;16.30;99.90;;;;;;5091857;28;20427;-55
2021/08/02 00:36:58;;;;;;;7.57;3.60;;;16.40;99.90;;;;;;5091941;28;20565;-54
2021/08/02 00:39:56;;;;;;;7.03;3.60;;;16.50;99.90;;;;;;5091363;28;20412;-54
2021/08/02 00:42:39;;;;;;;7.93;3.30;;;16.60;99.90;;;;;;5091115;28;20424;-54
2021/08/02 00:45:08;;;;;;;5.65;3.10;;;16.70;99.90;;;;;;5091462;28;20757;-54
2021/08/02 00:47:46;;;;;;;7.75;2.90;;;16.70;99.90;;;;;;5090693;28;20550;-54
2021/08/02 00:50:25;;;;;;;7.53;3.60;;;16.60;99.90;;;;;;5091283;28;20460;-53
2021/08/02 00:53:05;;;;;;;7.68;2.97;;;16.50;99.90;;;;;;5091846;28;20370;-53
2021/08/02 00:55:34;;;;;;;6.43;3.03;;;16.50;99.90;;;;;;5091054;28;20469;-54
2021/08/02 00:58:07;;;;;;;6.90;3.35;;;16.50;99.90;;;;;;5091576;28;20374;-54
2021/08/02 01:00:33;;;;;;;7.33;3.50;;;16.40;99.90;;;;;;5090825;28;20745;-53
2021/08/02 01:03:05;;;;;;;6.07;3.37;;;16.40;99.90;;;;;;5091272;28;20406;-54
2021/08/02 01:05:34;;;;;;;6.45;3.35;;;16.40;99.90;;;;;;5090726;28;20366;-54
2021/08/02 01:08:05;;;;;;;5.82;3.50;;;16.40;99.90;;;;;;5090064;28;20406;-54
2021/08/02 01:10:33;;;;;;;6.85;3.35;;;16.40;99.90;;;;;;5090788;28;20378;-54
2021/08/02 01:13:03;;;;;;;7.07;3.00;;;16.30;99.90;;;;;;5091358;28;20371;-54
2021/08/02 01:15:29;;;;;;;6.97;3.25;;;16.30;99.90;;;;;;5089015;28;20754;-54
2021/08/02 01:17:56;;;;;;;7.00;3.38;;;16.30;99.90;;;;;;5091230;28;20876;-54
2021/08/02 01:20:23;;;;;;;5.72;2.90;;;16.40;99.90;;;;;;5089857;28;20903;-54
2021/08/02 01:22:49;;;;;;;5.60;2.47;;;16.50;99.90;;;;;;5089766;28;20741;-54
2021/08/02 01:25:34;;;;;;;7.15;2.90;;;16.30;99.90;;;;;;5090977;28;20378;-54
2021/08/02 01:28:14;;;;;;;7.55;2.78;;;16.40;99.90;;;;;;5091238;28;20492;-53
2021/08/02 01:30:48;;;;;;;5.95;2.60;;;16.30;99.90;;;;;;5090674;28;20430;-54
2021/08/02 01:33:19;;;;;;;6.78;2.78;;;16.30;99.90;;;;;;5091174;28;20390;-54
2021/08/02 01:35:45;;;;;;;5.80;2.60;;;16.30;99.90;;;;;;5090743;28;20374;-54
2021/08/02 01:38:12;;;;;;;7.70;2.90;;;16.30;99.90;;;;;;5091053;28;20845;-54
2021/08/02 01:40:38;;;;;;;5.53;2.50;;;16.30;99.90;;;;;;5090058;28;20986;-54
2021/08/02 01:43:06;;;;;;;5.75;2.40;;;16.30;99.90;;;;;;5090873;28;20385;-53
2021/08/02 01:45:51;;;;;;;6.35;2.40;;;16.40;99.90;;;;;;5089840;28;20394;-53
2021/08/02 01:48:41;;;;;;;7.18;3.00;;;16.40;99.90;;;;;;5090615;28;20443;-53
2021/08/02 01:51:30;;;;;;;5.40;2.40;;;16.30;99.90;;;;;;5090545;28;20435;-54
2021/08/02 01:54:37;;;;;;;6.30;2.80;;;16.50;99.90;;;;;;5090693;28;20375;-54
2021/08/02 01:57:12;;;;;;;5.83;2.90;;;16.60;99.90;;;;;;5090532;28;20382;-54
2021/08/02 01:59:55;;;;;;;6.05;2.80;;;16.60;99.90;;;;;;5090005;28;20673;-54
2021/08/02 02:02:21;;;;;;;5.10;2.50;;;16.60;99.90;;;;;;5090327;28;20370;-55
2021/08/02 02:04:55;;;;;;;7.63;2.42;;;16.60;99.90;;;;;;5090647;28;20370;-54
2021/08/02 02:07:24;;;;;;;6.93;2.43;;;16.70;99.90;;;;;;5090153;28;20402;-55
2021/08/02 02:09:51;;;;;;;7.78;2.92;;;16.60;99.90;;;;;;5090313;28;20413;-54
2021/08/02 02:12:18;;;;;;;8.20;3.20;;;16.50;99.90;;;;;;5090454;28;20378;-54
2021/08/02 02:14:44;;;;;;;6.38;2.90;;;16.50;99.90;;;;;;5089376;28;20501;-54
2021/08/02 02:17:10;;;;;;;6.50;2.80;;;16.40;99.90;;;;;;5090193;28;20464;-54
2021/08/02 02:19:38;;;;;;;7.30;3.20;;;16.30;99.90;;;;;;5089343;28;20771;-54
2021/08/02 02:22:05;;;;;;;8.60;3.00;;;16.30;99.90;;;;;;5090167;28;20461;-54
2021/08/02 02:24:33;;;;;;;7.20;2.92;;;16.30;99.90;;;;;;5089498;28;20381;-53
2021/08/02 02:27:00;;;;;;;6.50;3.00;;;16.20;99.90;;;;;;5090132;28;20865;-54
2021/08/02 02:29:27;;;;;;;10.05;3.08;;;16.30;99.90;;;;;;5089543;28;20871;-54
2021/08/02 02:31:54;;;;;;;9.63;3.50;;;16.30;99.90;;;;;;5090187;28;20417;-54
2021/08/02 02:34:21;;;;;;;7.43;2.97;;;16.20;99.90;;;;;;5090299;28;20442;-55
2021/08/02 02:36:48;;;;;;;6.70;3.60;;;16.20;99.90;;;;;;5089566;28;20389;-54
2021/08/02 02:39:15;;;;;;;6.40;2.90;;;16.30;99.90;;;;;;5090174;28;20400;-53
2021/08/02 02:41:42;;;;;;;6.78;3.17;;;16.20;99.90;;;;;;5089438;28;20662;-54
2021/08/02 02:44:08;;;;;;;6.93;2.70;;;16.20;99.90;;;;;;5089972;28;20382;-54
2021/08/02 02:46:34;;;;;;;6.70;3.15;;;16.30;99.90;;;;;;5090406;28;20382;-54
2021/08/02 02:49:02;;;;;;;7.38;3.40;;;16.30;99.90;;;;;;5094108;28;20742;-54
2021/08/02 02:51:30;;;;;;;7.20;3.22;;;16.20;99.90;;;;;;5093473;28;20393;-54
2021/08/02 02:53:57;;;;;;;6.13;3.00;;;16.20;99.90;;;;;;5094111;28;20392;-54
2021/08/02 02:56:24;;;;;;;8.90;3.30;;;16.20;99.90;;;;;;5093873;28;20378;-56
2021/08/02 02:58:50;;;;;;;6.70;3.50;;;16.20;99.90;;;;;;5093732;28;20374;-54
2021/08/02 03:01:22;;;;;;;9.25;3.25;;;16.20;99.90;;;;;;5094359;28;20473;-54
2021/08/02 03:03:50;;;;;;;8.95;3.30;;;16.10;99.90;;;;;;5093278;28;20789;-54
2021/08/02 03:06:17;;;;;;;6.57;3.20;;;16.00;99.90;;;;;;5094014;28;20377;-54
2021/08/02 03:08:44;;;;;;;9.32;3.40;;;15.90;99.90;;;;;;5092783;28;20978;-54
2021/08/02 03:11:13;;;;;;;7.18;3.65;;;15.80;99.90;;;;;;5094006;28;20859;-54
2021/08/02 03:13:38;;;;;;;8.35;3.75;;;15.80;99.90;;;;;;5092644;28;20398;-54
2021/08/02 03:16:06;;;;;;;8.67;4.00;;;15.80;99.90;;;;;;5093416;28;20873;-54
2021/08/02 03:18:33;;;;;;;8.60;3.30;;;15.70;99.90;;;;;;5091381;28;20745;-54
2021/08/02 03:20:58;;;;;;;7.22;3.53;;;15.70;99.90;;;;;;5093695;28;20378;-54
2021/08/02 03:23:35;;;;;;;7.13;3.40;;;15.70;99.90;;;;;;5093384;28;20381;-55
2021/08/02 03:26:09;;;;;;;7.30;3.80;;;15.70;99.90;;;;;;5093475;28;20386;-54
2021/08/02 03:28:57;;;;;;;7.60;3.72;;;15.60;99.90;;;;;;5092354;28;20406;-54
2021/08/02 03:31:36;;;;;;;6.57;3.43;;;15.60;99.90;;;;;;5092954;28;20477;-54
2021/08/02 03:34:06;;;;;;;7.53;3.40;;;15.80;99.90;;;;;;5092907;28;20382;-54
2021/08/02 03:36:32;;;;;;;7.07;3.78;;;15.80;99.90;;;;;;5092545;28;20378;-54
2021/08/02 03:38:59;;;;;;;6.55;3.20;;;15.90;99.90;;;;;;5093119;28;20535;-54
2021/08/02 03:41:26;;;;;;;7.32;3.40;;;15.90;99.90;;;;;;5093064;28;20438;-56
2021/08/02 03:43:52;;;;;;;6.78;3.70;;;14.30;99.90;;;;;;5092625;28;20521;-54
2021/08/02 03:46:19;;;;;;;7.65;3.28;;;15.80;99.90;;;;;;5092935;28;20382;-54
2021/08/02 03:48:46;;;;;;;5.88;3.20;;;15.80;99.90;;;;;;5092154;28;20475;-54
2021/08/02 03:51:12;;;;;;;9.13;3.40;;;15.90;99.90;;;;;;5093124;28;20991;-54
2021/08/02 03:53:45;;;;;;;7.10;3.50;;;15.90;99.90;;;;;;5092121;28;20386;-54
2021/08/02 03:56:14;;;;;;;6.75;3.50;;;15.90;99.90;;;;;;5091998;28;20397;-54
2021/08/02 03:58:40;;;;;;;10.07;4.30;;;15.90;99.90;;;;;;5092198;28;20374;-53
2021/08/02 04:01:06;;;;;;;7.20;4.00;;;15.90;99.90;;;;;;5092598;28;20507;-54
2021/08/02 04:03:32;;;;;;;6.95;3.53;;;15.90;99.90;;;;;;5091956;28;20476;-55
2021/08/02 04:05:59;;;;;;;7.70;3.40;;;16.00;99.90;;;;;;5092837;28;20374;-54
2021/08/02 04:13:35;;;;;;;6.70;3.50;;;16.20;99.90;;;;;;5034715;22;20520;-59
2021/08/02 04:16:01;;;;;;;7.63;3.73;;;16.20;99.90;;;;;;4993432;28;20394;-58
2021/08/02 04:18:27;;;;;;;7.55;3.50;;;16.20;99.90;;;;;;4992857;28;21053;-58
2021/08/02 04:20:54;;;;;;;7.30;3.42;;;16.20;99.90;;;;;;4992222;28;20410;-58
2021/08/02 04:23:20;;;;;;;9.70;4.00;;;16.20;99.90;;;;;;4992851;28;20437;-58
2021/08/02 04:25:46;;;;;;;6.77;3.80;;;16.20;99.90;;;;;;4992890;28;20577;-57
2021/08/02 04:28:11;;;;;;;6.65;3.40;;;16.20;99.90;;;;;;4992173;28;20425;-58
2021/08/02 04:30:37;;;;;;;7.67;3.50;;;16.30;99.90;;;;;;4992385;28;20479;-58
2021/08/02 04:33:02;;;;;;;8.10;3.23;;;16.50;99.90;;;;;;4992388;28;20386;-58
2021/08/02 04:35:28;;;;;;;9.60;4.40;;;16.40;99.90;;;;;;4992579;28;20414;-58
2021/08/02 04:37:54;;;;;;;8.80;3.83;;;16.50;99.90;;;;;;4991676;28;20849;-58
2021/08/02 04:40:19;;;;;;;8.20;3.60;;;16.70;99.90;;;;;;4992704;28;20394;-58
2021/08/02 04:42:45;;;;;;;7.10;3.22;;;16.70;99.90;;;;;;4992521;28;20406;-58
2021/08/02 04:45:11;;;;;;;6.93;3.35;;;16.70;99.90;;;;;;4991619;28;20857;-58
2021/08/02 04:47:37;;;;;;;7.78;3.30;;;16.60;99.90;;;;;;4992381;28;20418;-58
2021/08/02 04:50:03;;;;;;;6.73;3.50;;;16.70;99.90;;;;;;4991420;28;20857;-58
2021/08/02 04:52:29;;;;;;;7.25;3.25;;;16.80;99.90;;;;;;4992535;28;20394;-58
2021/08/02 04:54:55;;;;;;;8.87;3.80;;;16.80;99.90;;;;;;4990627;28;20390;-58
2021/08/02 04:57:21;;;;;;;6.83;3.30;;;16.80;99.90;;;;;;4989321;28;20390;-58
2021/08/02 04:59:46;;;;;;;6.53;3.80;;;16.80;99.90;;;;;;4994813;28;20869;-58
2021/08/02 05:02:12;;;;;;;8.03;3.73;;;16.80;99.90;;;;;;5009830;28;20392;-58
2021/08/02 05:04:38;;;;;;;7.63;3.57;;;16.90;99.90;;;;;;4988424;28;20396;-59
2021/08/02 05:07:04;;;;;;;6.35;3.50;;;16.90;99.90;;;;;;4972103;28;20424;-58
2021/08/02 05:09:30;;;;;;;7.93;4.00;;;17.00;99.90;;;;;;4972125;28;20863;-59
2021/08/02 05:11:55;;;;;;;9.27;3.72;;;17.00;99.90;;;;;;4971583;28;20431;-58
2021/08/02 05:14:21;;;;;;;6.60;3.30;;;17.10;99.90;;;;;;4971965;28;20949;-58
2021/08/02 05:16:46;;;;;;;6.40;3.37;;;17.00;99.90;;;;;;4979932;28;20404;-57
2021/08/02 05:19:13;;;;;;;8.45;3.50;;;17.10;99.90;;;;;;4972162;28;20787;-59
2021/08/02 05:21:39;;;;;;;7.95;4.00;;;17.10;99.90;;;;;;4971903;28;20440;-58
2021/08/02 05:24:05;;;;;;;6.45;3.38;;;17.10;99.90;;;;;;4975178;28;20462;-57
2021/08/02 05:26:31;;;;;;;7.20;3.55;;;17.00;99.90;;;;;;4985825;28;20406;-58
2021/08/02 05:28:57;;;;;;;6.88;3.95;;;16.90;99.90;;;;;;4974845;28;20521;-58
2021/08/02 05:31:23;;;;;;;8.57;4.10;;;16.90;99.90;;;;;;4982545;28;20485;-58
2021/08/02 05:33:49;;;;;;;8.85;4.35;;;17.00;99.90;;;;;;4976481;28;20499;-58
2021/08/02 05:36:14;;;;;;;11.50;4.10;;;17.00;99.90;;;;;;4975934;28;20431;-58
2021/08/02 05:38:41;;;;;;;7.13;4.05;;;17.00;99.90;;;;;;4990125;28;20394;-58
2021/08/02 05:41:07;;;;;;;7.03;3.95;;;17.00;99.90;;;;;;4989990;28;20462;-58
2021/08/02 05:43:33;;;;;;;10.82;3.90;;;17.00;99.90;;;;;;4990721;28;20509;-58
2021/08/02 05:45:58;;;;;;;11.13;3.97;;;17.10;99.90;;;;;;4984167;28;20456;-57
2021/08/02 05:48:24;;;;;;;9.23;3.87;;;17.10;99.90;;;;;;4988493;28;20418;-58
2021/08/02 05:50:50;;;;;;;8.10;3.70;;;17.10;99.90;;;;;;4974086;28;20410;-58
2021/08/02 05:53:15;;;;;;;7.53;3.97;;;17.10;99.90;;;;;;4980892;28;20441;-58
2021/08/02 05:55:41;;;;;;;7.32;3.30;;;17.20;99.90;;;;;;4982205;28;20513;-58
2021/08/02 05:58:07;;;;;;;7.30;3.77;;;17.20;99.90;;;;;;4985272;28;20501;-58
2021/08/02 06:00:32;;;;;;;10.87;3.80;;;17.20;99.90;;;;;;4983237;28;20406;-58
2021/08/02 06:02:58;;;;;;;7.43;3.50;;;17.30;99.90;;;;;;4989308;28;20382;-58
2021/08/02 06:05:24;;;;;;;8.40;3.90;;;17.30;99.90;;;;;;4984573;28;20406;-57
2021/08/02 06:07:49;;;;;;;12.70;3.83;;;17.40;99.90;;;;;;4980704;28;20422;-58
2021/08/02 06:10:15;;;;;;;7.13;3.95;;;17.40;99.90;;;;;;4978906;28;20733;-58
2021/08/02 06:12:41;;;;;;;5.90;3.10;;;17.50;99.90;;;;;;4987759;28;20478;-57
2021/08/02 06:15:07;;;;;;;11.03;4.07;;;17.50;99.90;;;;;;4972910;28;20945;-58
2021/08/02 06:17:33;;;;;;;10.73;3.33;;;17.50;99.90;;;;;;4983751;28;20395;-58
2021/08/02 06:19:59;;;;;;;7.75;3.30;;;17.60;99.90;;;;;;4989820;28;20445;-58
2021/08/02 06:22:24;;;;;;;7.40;2.70;;;17.70;99.90;;;;;;4980488;28;20867;-58
2021/08/02 06:24:50;;;;;;;8.17;3.20;;;17.80;99.90;;;;;;4983941;28;20821;-58
2021/08/02 06:27:16;;;;;;;6.60;2.83;;;17.90;99.90;;;;;;4985222;28;20419;-58
2021/08/02 06:29:41;;;;;;;8.80;3.00;;;17.80;99.90;;;;;;4989196;28;21005;-59
2021/08/02 06:32:07;;;;;;;6.47;2.63;;;17.90;99.90;;;;;;4982971;28;20446;-59
2021/08/02 06:34:33;;;;;;;7.20;3.17;;;17.90;99.90;;;;;;4983286;28;20548;-59
2021/08/02 06:36:59;;;;;;;6.82;2.90;;;17.90;99.90;;;;;;4979150;28;20424;-57
2021/08/02 06:39:24;;;;;;;7.50;2.70;;;17.80;99.90;;;;;;4970588;28;20431;-58
2021/08/02 06:41:51;;;;;;;5.68;2.72;;;17.80;99.90;;;;;;4971451;28;20461;-58
2021/08/02 06:44:17;;;;;;;7.50;2.80;;;17.70;99.90;;;;;;4978461;28;20424;-58
2021/08/02 06:46:43;;;;;;;6.97;3.30;;;17.70;99.90;;;;;;4987809;28;20398;-58
2021/08/02 06:49:09;;;;;;;5.80;3.20;;;17.80;99.90;;;;;;4985665;28;20932;-58
2021/08/02 06:51:35;;;;;;;6.03;2.83;;;17.90;99.90;;;;;;4987514;28;20391;-58
2021/08/02 06:54:00;;;;;;;6.95;3.00;;;17.90;99.90;;;;;;4983147;28;20398;-58
2021/08/02 06:56:26;;;;;;;7.83;3.30;;;18.10;99.90;;;;;;4989341;28;20397;-58
2021/08/02 06:58:52;;;;;;;5.60;2.80;;;18.10;99.90;;;;;;4989332;28;20398;-59
2021/08/02 07:01:18;;;;;;;7.00;2.50;;;18.00;99.90;;;;;;4989479;28;20861;-59
2021/08/02 07:03:43;;;;;;;6.00;2.90;;;18.30;99.90;;;;;;4983585;28;20928;-59
2021/08/02 07:06:09;;;;;;;6.40;2.90;;;18.60;99.90;;;;;;4975350;28;20384;-58
2021/08/02 07:08:38;;;;;;;7.07;2.60;;;18.70;99.90;;;;;;4970097;28;20416;-59
2021/08/02 07:11:05;;;;;;;6.17;2.50;;;18.90;99.90;;;;;;4969755;28;20518;-59
2021/08/02 07:13:31;;;;;;;5.40;2.17;;;19.10;99.90;;;;;;4970059;28;20456;-59
2021/08/02 07:15:59;;;;;;;5.63;2.40;;;19.10;99.90;;;;;;4970490;28;20424;-58
2021/08/02 07:18:24;;;;;;;6.53;2.40;;;19.40;99.90;;;;;;4970044;28;20396;-59
2021/08/02 07:20:50;;;;;;;5.90;2.50;;;19.50;99.90;;;;;;4981895;28;20748;-58
2021/08/02 07:23:16;;;;;;;6.60;2.40;;;19.70;99.90;;;;;;4981645;28;20398;-59
2021/08/02 07:25:43;;;;;;;7.70;2.50;;;20.00;99.90;;;;;;4980259;28;20419;-60
2021/08/02 07:28:08;;;;;;;5.90;2.25;;;20.00;99.90;;;;;;4976256;28;20426;-59
2021/08/02 07:30:34;;;;;;;7.43;2.40;;;20.40;99.90;;;;;;4981240;28;20402;-59
2021/08/02 07:33:00;;;;;;;6.00;2.20;;;20.70;99.90;;;;;;4981780;28;20408;-57
2021/08/02 07:35:28;;;;;;;7.20;2.30;;;21.10;99.90;;;;;;4993276;28;20469;-60
2021/08/02 07:37:53;;;;;;;5.35;1.70;;;21.90;99.90;;;;;;4993081;28;20394;-59
2021/08/02 07:40:19;;;;;;;6.07;2.10;;;22.50;99.90;;;;;;4992525;28;21062;-58
2021/08/02 07:42:45;;;;;;;4.95;1.90;;;22.80;99.90;;;;;;4989793;28;20503;-58
2021/08/02 07:45:11;;;;;;;6.85;2.25;;;23.30;99.90;;;;;;4986376;28;20734;-59
2021/08/02 07:47:36;;;;;;;5.35;1.80;;;23.80;99.90;;;;;;4992396;28;20422;-58
2021/08/02 07:50:04;;;;;;;7.10;2.47;;;24.10;99.90;;;;;;4985753;28;20479;-58
2021/08/02 07:52:31;;;;;;;6.82;1.90;;;24.00;99.90;;;;;;4989890;28;20525;-61
2021/08/02 07:54:57;;;;;;;5.53;1.80;;;24.20;99.90;;;;;;4989926;28;20402;-60
2021/08/02 07:57:23;;;;;;;5.00;1.50;;;24.10;99.90;;;;;;4990696;28;20951;-60
2021/08/02 07:59:48;;;;;;;5.13;1.70;;;23.80;99.90;;;;;;4992772;28;20406;-61
2021/08/02 08:02:14;;;;;;;7.00;1.90;;;23.70;99.90;;;;;;4991891;28;20887;-60
2021/08/02 08:04:40;;;;;;;5.10;1.90;;;23.90;99.90;;;;;;4992391;28;20391;-60
2021/08/02 08:07:05;;;;;;;5.57;2.20;;;23.30;99.90;;;;;;4992076;28;20510;-60
2021/08/02 08:09:31;;;;;;;6.80;1.90;;;22.60;99.90;;;;;;4992365;28;20552;-59
2021/08/02 08:11:57;;;;;;;6.97;2.15;;;22.30;99.90;;;;;;4992400;28;20382;-59
2021/08/02 08:14:22;;;;;;;7.15;2.40;;;22.30;99.90;;;;;;4991746;28;20402;-59
2021/08/02 08:16:48;;;;;;;7.00;2.43;;;22.30;99.90;;;;;;4992617;28;20387;-59
2021/08/02 08:19:13;;;;;;;5.40;2.00;;;22.10;99.90;;;;;;4991714;28;20394;-59
2021/08/02 08:21:39;;;;;;;6.50;2.27;;;22.10;99.90;;;;;;4992422;28;20382;-59
2021/08/02 08:24:06;;;;;;;6.60;2.03;;;22.30;99.90;;;;;;4991480;28;20382;-59
2021/08/02 08:26:34;;;;;;;6.57;1.90;;;22.60;99.90;;;;;;4992087;28;20394;-59
2021/08/02 08:29:00;;;;;;;7.00;2.23;;;22.60;99.90;;;;;;4991954;28;20497;-58
2021/08/02 08:31:26;;;;;;;6.90;2.00;;;22.90;99.90;;;;;;4991618;28;20534;-59
2021/08/02 08:33:51;;;;;;;5.00;1.70;;;22.80;99.90;;;;;;4992048;28;20383;-60
2021/08/02 08:36:17;;;;;;;6.13;1.90;;;23.40;99.90;;;;;;4991266;28;20390;-60
2021/08/02 08:38:44;;;;;;;6.07;1.90;;;23.90;99.90;;;;;;4992109;28;20390;-60
2021/08/02 08:41:12;;;;;;;7.78;2.45;;;24.00;99.90;;;;;;4991582;28;20425;-60
2021/08/02 08:43:42;;;;;;;5.73;1.83;;;24.30;99.90;;;;;;4991616;28;20885;-60
2021/08/02 08:46:07;;;;;;;7.90;1.98;;;24.80;99.90;;;;;;4990968;28;20386;-60
2021/08/02 08:48:33;;;;;;;6.13;2.00;;;25.20;99.90;;;;;;4991660;28;20489;-61
2021/08/02 08:51:02;;;;;;;9.10;1.40;;;26.00;99.90;;;;;;4992479;28;20383;-58
2021/08/02 08:53:28;;;;;;;6.00;1.60;;;27.50;99.90;;;;;;4990922;28;20386;-60
2021/08/02 08:55:54;;;;;;;6.00;1.80;;;27.80;95.40;;;;;;4991833;28;20386;-60
2021/08/02 08:58:20;;;;;;;7.57;1.90;;;27.40;95.00;;;;;;4991019;28;20402;-60
2021/08/02 09:00:46;;;;;;;6.00;2.47;;;27.50;95.70;;;;;;4989328;28;20408;-60
2021/08/02 09:03:17;;;;;;;7.10;3.30;;;28.40;93.50;;;;;;4990606;28;20887;-60
2021/08/02 09:05:43;;;;;;;10.50;3.30;;;29.00;90.20;;;;;;4991946;28;20382;-60
2021/08/02 09:08:17;;;;;;;8.48;2.70;;;28.30;90.30;;;;;;4990393;28;20421;-60
2021/08/02 09:10:59;;;;;;;5.40;2.63;;;27.70;93.00;;;;;;4991679;28;20382;-60
2021/08/02 09:13:32;;;;;;;9.05;3.15;;;27.70;92.00;;;;;;4990327;28;20410;-60
2021/08/02 09:15:58;;;;;;;7.75;2.50;;;28.00;90.80;;;;;;4991375;28;20395;-60
2021/08/02 09:18:24;;;;;;;5.90;3.60;;;29.00;89.20;;;;;;4990352;28;20401;-60
2021/08/02 09:21:04;;;;;;;6.85;3.50;;;30.00;83.40;;;;;;4991431;28;20391;-61
2021/08/02 09:23:30;;;;;;;5.60;1.60;;;29.90;83.80;;;;;;4991005;28;20433;-61
2021/08/02 09:25:59;;;;;;;4.87;2.37;;;30.00;80.70;;;;;;4991142;28;20691;-61
2021/08/02 09:28:26;;;;;;;7.40;1.60;;;30.50;78.80;;;;;;4990675;28;20437;-60
2021/08/02 09:31:00;;;;;;;6.82;2.72;;;28.90;79.40;;;;;;4991257;28;20391;-60
2021/08/02 09:33:32;;;;;;;6.80;2.60;;;26.80;85.10;;;;;;4985458;28;20470;-60
2021/08/02 09:36:01;;;;;;;5.78;2.95;;;26.00;89.70;;;;;;4987253;28;21165;-60
2021/08/02 09:38:27;;;;;;;5.87;2.50;;;25.40;91.90;;;;;;4989621;28;20398;-60
2021/08/02 09:40:57;;;;;;;5.60;2.30;;;25.20;92.40;;;;;;4990647;28;20394;-60
2021/08/02 09:43:25;;;;;;;12.95;4.00;;;25.00;96.00;;;;;;4990316;28;20441;-62
2021/08/02 09:45:55;;;;;;;10.18;2.83;;;24.40;99.90;;;;;;4991054;28;20387;-63
2021/08/02 09:48:37;;;;;;;7.40;2.50;;;24.20;99.90;;;;;;4990126;28;20820;-63
2021/08/02 09:51:15;;;;;;;10.25;3.28;;;23.50;99.90;;;;;;4990744;28;20765;-62
2021/08/02 09:53:52;;;;;;;5.60;2.10;;;22.20;99.90;;;;;;4990450;28;20844;-62
2021/08/02 09:56:20;;;;;;;5.77;2.00;;;21.40;99.90;;;;;;4977289;28;20420;-61
2021/08/02 09:58:46;;;;;;;4.60;1.38;;;21.10;99.90;;;;;;4992624;28;20436;-61
2021/08/02 10:01:19;;;;;;;5.40;1.50;;;20.30;99.90;;;;;;5009825;28;20773;-61
2021/08/02 10:03:46;;;;;;;4.40;1.20;;;19.90;99.90;;;;;;5010135;28;20463;-61
2021/08/02 10:06:14;;;;;;;5.00;1.50;;;20.00;99.90;;;;;;5009966;28;20437;-61
2021/08/02 10:08:40;;;;;;;4.90;1.30;;;20.00;99.90;;;;;;5010170;28;20486;-61
2021/08/02 10:11:07;;;;;;;4.50;1.70;;;20.00;99.90;;;;;;5008659;28;20815;-59
2021/08/02 10:13:37;;;;;;;5.00;1.50;;;19.80;99.90;;;;;;4980398;28;20436;-61
2021/08/02 10:16:10;;;;;;;6.10;1.63;;;19.60;99.90;;;;;;4989507;28;20429;-61
2021/08/02 10:18:37;;;;;;;5.68;2.10;;;19.50;99.90;;;;;;4989952;28;20399;-61
2021/08/02 10:21:10;;;;;;;6.00;1.60;;;19.10;99.90;;;;;;4990547;28;20394;-61
2021/08/02 10:23:40;;;;;;;4.70;1.50;;;17.10;99.90;;;;;;4989216;28;20414;-62
2021/08/02 10:26:20;;;;;;;6.45;2.00;;;18.90;99.90;;;;;;4990398;28;20477;-62
2021/08/02 10:29:11;;;;;;;5.72;2.15;;;19.30;99.90;;;;;;4990111;28;20473;-61
2021/08/02 10:31:50;;;;;;;6.10;2.30;;;19.40;99.90;;;;;;4987057;28;20402;-61
2021/08/02 10:34:21;;;;;;;6.00;2.00;;;19.70;99.90;;;;;;4989433;28;20390;-62
2021/08/02 10:37:01;;;;;;;6.07;1.90;;;19.80;99.90;;;;;;4989395;28;20502;-61
2021/08/02 10:39:29;;;;;;;5.00;1.70;;;20.10;99.90;;;;;;4988721;28;20465;-62
2021/08/02 10:42:08;;;;;;;6.18;1.92;;;20.40;99.90;;;;;;4989938;28;20398;-62
2021/08/02 10:44:34;;;;;;;8.00;1.95;;;20.90;99.90;;;;;;4990067;28;20473;-62
2021/08/02 10:47:05;;;;;;;6.30;2.40;;;21.20;99.90;;;;;;4989559;28;20457;-59
2021/08/02 10:49:32;;;;;;;6.00;2.20;;;21.50;99.90;;;;;;4989228;28;20381;-59
2021/08/02 10:51:58;;;;;;;5.60;1.90;;;21.60;99.90;;;;;;4989513;28;20414;-59
2021/08/02 10:54:24;;;;;;;5.43;1.70;;;21.60;99.90;;;;;;4988906;28;20470;-59
2021/08/02 10:56:51;;;;;;;6.28;1.90;;;21.70;99.90;;;;;;4989502;28;20421;-60
2021/08/02 10:59:21;;;;;;;4.63;1.40;;;21.50;99.90;;;;;;4996337;28;20497;-60
2021/08/02 11:01:48;;;;;;;5.20;2.10;;;21.20;99.90;;;;;;5009812;28;20419;-59
2021/08/02 11:04:15;;;;;;;5.00;1.90;;;21.00;99.90;;;;;;5008685;28;20848;-57
2021/08/02 11:06:40;;;;;;;5.20;2.03;;;20.70;99.90;;;;;;5009555;28;20848;-60
2021/08/02 11:09:06;;;;;;;5.20;2.10;;;20.50;99.90;;;;;;5012905;28;20439;-60
2021/08/02 11:11:37;;;;;;;5.03;1.90;;;20.50;99.90;;;;;;5012856;28;20852;-60
2021/08/02 11:14:10;;;;;;;6.10;2.40;;;20.20;99.90;;;;;;5013450;28;20494;-60
2021/08/02 11:16:46;;;;;;;5.67;1.97;;;20.50;99.90;;;;;;5012730;28;20396;-60
2021/08/02 11:19:36;;;;;;;5.63;2.13;;;20.80;99.90;;;;;;5012903;28;20434;-58
2021/08/02 11:22:06;;;;;;;5.82;1.73;;;21.10;99.90;;;;;;4996977;28;20414;-61
2021/08/02 11:24:34;;;;;;;5.17;1.63;;;22.00;99.90;;;;;;4992267;28;20397;-60
2021/08/02 11:27:02;;;;;;;6.63;1.70;;;22.10;99.90;;;;;;4992824;28;20391;-60
2021/08/02 11:29:34;;;;;;;5.23;1.90;;;22.20;99.90;;;;;;4992634;28;20390;-60
2021/08/02 11:32:10;;;;;;;4.63;1.50;;;22.40;99.90;;;;;;4993401;28;20390;-60
2021/08/02 11:34:37;;;;;;;5.60;1.93;;;22.10;99.90;;;;;;4992514;28;20494;-60
2021/08/02 11:37:06;;;;;;;4.60;1.30;;;22.40;99.90;;;;;;4993410;28;20425;-60
2021/08/02 11:39:33;;;;;;;4.90;1.77;;;22.70;99.90;;;;;;4992729;28;20398;-60
2021/08/02 11:42:07;;;;;;;5.20;2.00;;;22.60;99.90;;;;;;4993287;28;20879;-60
2021/08/02 11:44:36;;;;;;;6.50;1.80;;;22.50;99.90;;;;;;4992286;28;20389;-60
2021/08/02 11:47:04;;;;;;;5.20;1.83;;;22.30;99.90;;;;;;4993252;28;20892;-60
2021/08/02 11:49:34;;;;;;;5.13;1.88;;;22.20;99.90;;;;;;4992448;28;20906;-60
2021/08/02 11:52:00;;;;;;;6.50;1.70;;;22.20;99.90;;;;;;4993583;28;20386;-60
2021/08/02 11:54:26;;;;;;;6.18;2.00;;;22.40;99.90;;;;;;4992117;28;20414;-60
2021/08/02 11:56:53;;;;;;;5.50;2.10;;;22.30;99.90;;;;;;4993159;28;20394;-60
2021/08/02 11:59:22;;;;;;;4.43;1.60;;;22.50;99.90;;;;;;4999519;28;20848;-60
2021/08/02 12:01:50;;;;;;;4.80;1.67;;;22.00;99.90;;;;;;4996021;28;20416;-60
2021/08/02 12:04:17;;;;;;;5.40;2.40;;;21.50;99.90;;;;;;4992086;28;20394;-58
2021/08/02 12:06:56;;;;;;;5.17;2.10;;;21.40;99.90;;;;;;4993035;28;20399;-60
2021/08/02 12:09:36;;;;;;;5.50;2.20;;;21.20;99.90;;;;;;4990610;28;20418;-60
2021/08/02 12:12:04;;;;;;;5.75;1.90;;;21.60;99.90;;;;;;4992158;28;20387;-60
2021/08/02 12:14:31;;;;;;;5.10;1.60;;;21.60;99.90;;;;;;4991656;28;20790;-59
2021/08/02 12:17:05;;;;;;;5.70;2.00;;;21.70;99.90;;;;;;4992801;28;20387;-60
2021/08/02 12:19:42;;;;;;;5.80;2.00;;;21.80;99.90;;;;;;4989901;28;20485;-59
2021/08/02 12:22:07;;;;;;;5.10;1.90;;;21.90;99.90;;;;;;4992460;28;20417;-58
2021/08/02 12:24:33;;;;;;;4.85;1.65;;;21.70;99.90;;;;;;4986193;28;20885;-58
2021/08/02 12:26:58;;;;;;;4.82;1.85;;;21.50;99.90;;;;;;4985163;28;20396;-59
2021/08/02 12:29:30;;;;;;;4.72;1.90;;;21.70;99.90;;;;;;4989223;28;20466;-59
2021/08/02 12:32:01;;;;;;;6.47;2.20;;;22.00;99.90;;;;;;4985933;28;20444;-58
2021/08/02 12:34:28;;;;;;;5.30;1.70;;;22.40;99.90;;;;;;4985358;28;20416;-58
2021/08/02 12:36:55;;;;;;;5.40;1.70;;;22.30;99.90;;;;;;4978814;28;20397;-58
2021/08/02 12:39:22;;;;;;;6.00;2.33;;;22.00;99.90;;;;;;4976068;28;20408;-58
2021/08/02 12:41:48;;;;;;;4.45;1.80;;;21.90;99.90;;;;;;4976438;28;20481;-57
2021/08/02 12:44:14;;;;;;;4.70;1.80;;;22.10;99.90;;;;;;4979653;28;20549;-58
2021/08/02 12:46:39;;;;;;;6.65;1.95;;;22.00;99.90;;;;;;4981599;28;20402;-58
2021/08/02 12:49:05;;;;;;;5.85;1.92;;;21.60;99.90;;;;;;4983173;28;20421;-58
2021/08/02 12:51:31;;;;;;;4.93;1.98;;;21.50;99.90;;;;;;4983412;28;20445;-57
2021/08/02 12:53:56;;;;;;;4.70;1.70;;;21.60;99.90;;;;;;4991490;28;20494;-58
2021/08/02 12:56:22;;;;;;;6.00;1.90;;;21.80;99.90;;;;;;4987891;28;20847;-58
2021/08/02 12:58:47;;;;;;;5.43;1.80;;;21.90;99.90;;;;;;4981111;28;20775;-58